Time;durP1;ratioP1;P1;durP2;ratioP2;P2;SDS_P1;SDS_P2;PMS_P1;PMS_P2;Temp;Humidity;BMP_temperature;BMP_pressure;BME280_temperature;BME280_humidity;BME280_pressure;Samples;Min_cycle;Max_cycle;Signal;HPM_P1;HPM_P2
2022/10/16 00:01:30;;;;;;;8.32;5.18;;;;;;;12.84;100.00;100487.66;4973793;28;20201;-78
2022/10/16 00:03:58;;;;;;;6.63;5.07;;;;;;;12.83;100.00;100490.44;4973708;28;20147;-80
2022/10/16 00:06:28;;;;;;;8.25;4.78;;;;;;;12.82;100.00;100481.75;4975176;28;20093;-79
2022/10/16 00:08:57;;;;;;;10.43;4.82;;;;;;;12.93;100.00;100489.22;4975361;28;20050;-79
2022/10/16 00:11:26;;;;;;;7.95;4.82;;;;;;;12.88;100.00;100491.56;4973562;28;20067;-78
2022/10/16 00:13:58;;;;;;;8.07;4.88;;;;;;;12.85;100.00;100497.16;4973675;28;20517;-78
2022/10/16 00:16:24;;;;;;;6.60;4.63;;;;;;;12.78;100.00;100504.09;4975714;28;20580;-76
2022/10/16 00:18:51;;;;;;;8.98;5.55;;;;;;;12.78;100.00;100514.59;4976072;28;20129;-77
2022/10/16 00:21:20;;;;;;;5.63;4.63;;;;;;;12.77;100.00;100512.16;4976760;28;20155;-78
2022/10/16 00:23:50;;;;;;;6.03;4.85;;;;;;;12.77;100.00;100512.16;4975703;28;20521;-77
2022/10/16 00:26:18;;;;;;;6.28;4.60;;;;;;;12.75;100.00;100516.78;4974924;28;20100;-76
2022/10/16 00:28:46;;;;;;;5.22;4.20;;;;;;;12.71;100.00;100507.59;4976994;28;20134;-78
2022/10/16 00:31:17;;;;;;;8.77;4.75;;;;;;;12.66;100.00;100505.50;4975276;28;20079;-78
2022/10/16 00:33:43;;;;;;;5.53;4.20;;;;;;;12.62;100.00;100494.53;4978082;28;20466;-78
2022/10/16 00:36:13;;;;;;;6.82;4.60;;;;;;;12.62;100.00;100493.72;4981097;28;20134;-77
2022/10/16 00:38:39;;;;;;;6.22;4.40;;;;;;;12.59;100.00;100491.44;4979371;28;20130;-77
2022/10/16 00:41:08;;;;;;;9.23;4.50;;;;;;;12.57;100.00;100496.03;4977433;28;20079;-78
2022/10/16 00:43:39;;;;;;;8.02;4.72;;;;;;;12.58;100.00;100497.66;4975569;28;20050;-78
2022/10/16 00:46:14;;;;;;;7.32;4.63;;;;;;;12.56;100.00;100489.97;4975582;28;20133;-77
2022/10/16 00:48:41;;;;;;;6.53;4.78;;;;;;;12.57;100.00;100491.59;4973665;28;20520;-78
2022/10/16 00:51:08;;;;;;;5.00;4.40;;;;;;;12.58;100.00;100493.22;4973870;28;20051;-78
2022/10/16 00:53:36;;;;;;;5.70;4.50;;;;;;;12.51;100.00;100486.22;4974663;28;20138;-77
2022/10/16 00:56:03;;;;;;;7.50;4.93;;;;;;;12.47;100.00;100490.97;4973666;28;20139;-77
2022/10/16 00:58:31;;;;;;;5.97;4.82;;;;;;;12.44;100.00;100485.25;4973124;28;20046;-77
2022/10/16 01:00:57;;;;;;;7.20;5.05;;;;;;;12.40;100.00;100489.22;4974470;28;20134;-77
2022/10/16 01:03:27;;;;;;;5.20;4.43;;;;;;;12.36;100.00;100501.03;4974650;28;20173;-77
2022/10/16 01:06:07;;;;;;;6.15;4.85;;;;;;;12.41;100.00;100501.34;4973546;28;20078;-77
2022/10/16 01:08:45;;;;;;;7.40;5.03;;;;;;;12.41;100.00;100504.78;4973075;28;20051;-77
2022/10/16 01:11:18;;;;;;;6.55;5.00;;;;;;;12.45;100.00;100513.13;4975207;28;20450;-79
2022/10/16 01:13:49;;;;;;;6.40;4.97;;;;;;;12.42;100.00;100498.56;4956567;29;20051;-79
2022/10/16 01:16:22;;;;;;;7.72;5.18;;;;;;;12.45;100.00;100513.13;4964990;28;20074;-78
2022/10/16 01:18:55;;;;;;;6.57;4.90;;;;;;;12.43;100.00;100509.88;4974781;28;20426;-78
2022/10/16 01:21:29;;;;;;;6.10;4.57;;;;;;;12.46;100.00;100515.59;4979577;28;20053;-78
2022/10/16 01:24:09;;;;;;;8.95;5.35;;;;;;;12.47;100.00;100511.16;4977704;28;20125;-78
2022/10/16 01:26:53;;;;;;;5.95;4.43;;;;;;;12.52;100.00;100514.09;4974577;28;20069;-77
2022/10/16 01:29:26;;;;;;;8.55;4.70;;;;;;;12.56;100.00;100504.88;4973917;28;20110;-78
2022/10/16 01:31:58;;;;;;;9.68;5.13;;;;;;;12.55;100.00;100492.75;4974240;28;20062;-78
2022/10/16 01:34:33;;;;;;;5.53;4.68;;;;;;;12.61;100.00;100497.31;4976501;28;20054;-78
2022/10/16 01:37:11;;;;;;;7.05;5.18;;;;;;;12.60;100.00;100512.25;4981186;28;20137;-79
2022/10/16 01:39:41;;;;;;;10.27;5.63;;;;;;;12.56;100.00;100520.63;4979365;28;20109;-79
2022/10/16 01:42:13;;;;;;;8.88;6.10;;;;;;;12.62;100.00;100512.91;4980460;28;20074;-78
2022/10/16 01:44:43;;;;;;;9.18;6.10;;;;;;;12.63;100.00;100511.91;4981002;28;20430;-79
2022/10/16 01:47:15;;;;;;;6.80;6.10;;;;;;;12.66;100.00;100513.38;4981746;28;20105;-78
2022/10/16 01:49:46;;;;;;;11.93;6.03;;;;;;;12.65;100.00;100508.28;4980875;28;20111;-80
2022/10/16 01:52:22;;;;;;;7.95;7.15;;;;;;;12.60;100.00;100514.88;4979471;28;20114;-80
2022/10/16 01:54:53;;;;;;;10.13;6.80;;;;;;;12.60;100.00;100516.69;4981677;28;20074;-80
2022/10/16 01:57:24;;;;;;;10.48;7.43;;;;;;;12.56;100.00;100510.13;4983745;28;20075;-78
2022/10/16 01:59:55;;;;;;;8.60;6.90;;;;;;;12.47;100.00;100511.16;4974838;28;20047;-78
2022/10/16 02:02:23;;;;;;;7.72;6.90;;;;;;;12.41;100.00;100511.84;4973935;28;20081;-77
2022/10/16 02:04:55;;;;;;;8.48;6.95;;;;;;;12.38;100.00;100523.50;4974207;28;20432;-78
2022/10/16 02:07:23;;;;;;;9.38;7.20;;;;;;;12.38;100.00;100522.69;4973409;28;20129;-78
2022/10/16 02:09:49;;;;;;;10.48;7.78;;;;;;;12.44;100.00;100522.00;4971945;28;20406;-77
2022/10/16 02:12:23;;;;;;;7.85;7.05;;;;;;;12.39;100.00;100525.13;4976353;28;20082;-78
2022/10/16 02:14:54;;;;;;;9.70;6.30;;;;;;;12.34;100.00;100531.88;4974382;28;20068;-78
2022/10/16 02:17:24;;;;;;;8.88;6.55;;;;;;;12.43;100.00;100541.34;4973075;28;20078;-78
2022/10/16 02:19:53;;;;;;;10.50;6.47;;;;;;;12.34;100.00;100527.44;4972508;28;20169;-78
2022/10/16 02:22:26;;;;;;;7.78;6.50;;;;;;;12.35;100.00;100523.00;4973214;28;20058;-78
2022/10/16 02:24:57;;;;;;;8.55;6.38;;;;;;;12.33;100.00;100525.81;4972941;28;20532;-78
2022/10/16 02:27:28;;;;;;;7.65;6.70;;;;;;;12.30;100.00;100534.03;4973404;28;20141;-78
2022/10/16 02:30:07;;;;;;;9.18;6.65;;;;;;;12.34;100.00;100534.50;4972536;28;20130;-78
2022/10/16 02:32:35;;;;;;;8.50;7.63;;;;;;;12.34;100.00;100535.31;4972253;28;20050;-78
2022/10/16 02:35:04;;;;;;;8.77;7.03;;;;;;;12.30;100.00;100537.47;4972948;28;20514;-78
2022/10/16 02:37:32;;;;;;;8.32;7.38;;;;;;;12.31;100.00;100543.53;4972921;28;20126;-78
2022/10/16 02:39:59;;;;;;;8.43;6.78;;;;;;;12.36;100.00;100545.66;4971882;28;20542;-78
2022/10/16 02:42:30;;;;;;;8.52;7.07;;;;;;;12.33;100.00;100546.78;4972769;28;20064;-78
2022/10/16 02:45:01;;;;;;;8.80;6.80;;;;;;;12.34;100.00;100548.44;4973022;28;20062;-78
2022/10/16 02:47:28;;;;;;;7.80;7.00;;;;;;;12.34;100.00;100537.13;4972965;28;20057;-78
2022/10/16 02:49:54;;;;;;;9.23;6.90;;;;;;;12.32;100.00;100545.16;4973110;28;20047;-78
2022/10/16 02:52:21;;;;;;;8.32;7.03;;;;;;;12.33;100.00;100545.97;4974138;28;20142;-77
2022/10/16 02:54:50;;;;;;;7.65;6.85;;;;;;;12.33;100.00;100535.47;4975357;28;20383;-79
2022/10/16 02:57:17;;;;;;;10.10;6.85;;;;;;;12.33;100.00;100543.34;4974448;28;20138;-79
2022/10/16 02:59:44;;;;;;;8.18;7.05;;;;;;;12.30;100.00;100542.72;4977372;28;20054;-78
2022/10/16 03:02:12;;;;;;;9.90;6.40;;;;;;;12.27;100.00;100539.63;4975323;28;20114;-78
2022/10/16 03:04:39;;;;;;;7.20;6.28;;;;;;;12.28;100.00;100555.22;4980260;28;20047;-78
2022/10/16 03:07:06;;;;;;;7.18;6.03;;;;;;;12.23;100.00;100547.03;4978584;28;20531;-78
2022/10/16 03:09:32;;;;;;;9.18;6.20;;;;;;;12.22;100.00;100545.38;4973319;28;20061;-78
2022/10/16 03:11:59;;;;;;;7.70;5.75;;;;;;;12.21;100.00;100530.63;4973058;28;20055;-78
2022/10/16 03:14:26;;;;;;;9.30;5.78;;;;;;;12.18;100.00;100528.34;4976374;28;20050;-78
2022/10/16 03:16:52;;;;;;;7.43;5.20;;;;;;;12.16;100.00;100527.69;4977252;28;20487;-80
2022/10/16 03:19:21;;;;;;;6.15;4.47;;;;;;;12.19;100.00;100519.47;4982299;28;20054;-79
2022/10/16 03:21:47;;;;;;;5.20;4.70;;;;;;;12.15;100.00;100514.75;4977173;28;20051;-78
2022/10/16 03:24:14;;;;;;;8.55;4.85;;;;;;;12.13;100.00;100528.03;4975923;28;20055;-79
2022/10/16 03:26:41;;;;;;;5.68;4.63;;;;;;;12.08;100.00;100537.38;4976426;28;20129;-78
2022/10/16 03:29:07;;;;;;;6.05;4.80;;;;;;;12.02;100.00;100536.25;4975688;28;20560;-78
2022/10/16 03:31:34;;;;;;;5.65;4.82;;;;;;;12.03;100.00;100526.56;4976756;28;20609;-78
2022/10/16 03:34:01;;;;;;;6.32;4.75;;;;;;;12.00;100.00;100527.72;4979355;28;20059;-77
2022/10/16 03:36:29;;;;;;;7.75;4.60;;;;;;;11.96;100.00;100542.97;4978262;28;20063;-79
2022/10/16 03:38:56;;;;;;;6.13;5.07;;;;;;;11.96;100.00;100535.09;4978901;28;20055;-78
2022/10/16 03:41:22;;;;;;;5.97;4.60;;;;;;;12.00;100.00;100535.59;4976577;28;20142;-77
2022/10/16 03:43:51;;;;;;;5.75;4.20;;;;;;;12.09;100.00;100539.84;4976067;28;20455;-77
2022/10/16 03:46:18;;;;;;;5.65;4.10;;;;;;;12.13;100.00;100519.34;4980345;28;20110;-78
2022/10/16 03:48:45;;;;;;;4.57;4.03;;;;;;;12.21;100.00;100533.25;4977772;28;20443;-78
2022/10/16 03:51:11;;;;;;;6.20;3.97;;;;;;;12.26;100.00;100544.06;4977542;28;20134;-78
2022/10/16 03:53:39;;;;;;;6.68;4.22;;;;;;;12.21;100.00;100556.84;4975423;28;20047;-77
2022/10/16 03:56:06;;;;;;;4.95;3.63;;;;;;;12.23;100.00;100557.50;4975644;28;20043;-78
2022/10/16 03:58:33;;;;;;;4.03;3.45;;;;;;;12.28;100.00;100560.44;4975994;28;20050;-78
2022/10/16 04:01:00;;;;;;;4.20;3.58;;;;;;;12.29;100.00;100556.81;4976423;28;20106;-79
2022/10/16 04:03:26;;;;;;;5.88;3.58;;;;;;;12.32;100.00;100555.66;4974416;28;20050;-78
2022/10/16 04:05:53;;;;;;;4.65;3.38;;;;;;;12.30;100.00;100561.06;4973848;28;20059;-78
2022/10/16 04:08:19;;;;;;;7.55;3.35;;;;;;;12.35;100.00;100563.19;4973174;28;20197;-78
2022/10/16 04:10:47;;;;;;;5.60;3.30;;;;;;;12.40;100.00;100563.50;4974437;28;20365;-77
2022/10/16 04:13:14;;;;;;;4.15;3.50;;;;;;;12.39;100.00;100561.06;4974650;28;20047;-78
2022/10/16 04:15:41;;;;;;;6.90;3.40;;;;;;;12.43;100.00;100559.72;4974017;28;20043;-78
2022/10/16 04:18:08;;;;;;;7.88;3.78;;;;;;;12.42;100.00;100563.34;4973266;28;20050;-77
2022/10/16 04:20:38;;;;;;;5.38;3.40;;;;;;;12.38;100.00;100565.47;4973836;28;20101;-78
2022/10/16 04:23:05;;;;;;;5.00;3.88;;;;;;;12.36;100.00;100577.13;4975419;28;20089;-78
2022/10/16 04:25:31;;;;;;;5.43;3.70;;;;;;;12.30;100.00;100579.44;4977822;28;20055;-77
2022/10/16 04:27:59;;;;;;;5.70;3.50;;;;;;;12.29;100.00;100582.22;4976174;28;20051;-78
2022/10/16 04:30:26;;;;;;;4.95;3.33;;;;;;;12.25;100.00;100571.28;4976583;28;20129;-78
2022/10/16 04:32:54;;;;;;;6.97;3.45;;;;;;;12.28;100.00;100570.13;4975098;28;20128;-77
2022/10/16 04:35:22;;;;;;;5.03;3.60;;;;;;;12.28;100.00;100570.94;4973740;28;20050;-77
2022/10/16 04:37:48;;;;;;;7.55;3.45;;;;;;;12.30;100.00;100565.50;4973743;28;20133;-75
2022/10/16 04:40:17;;;;;;;4.13;3.40;;;;;;;12.34;100.00;100563.34;4975082;28;20051;-79
2022/10/16 04:42:44;;;;;;;3.70;3.30;;;;;;;12.23;100.00;100575.88;4974589;28;20061;-79
2022/10/16 04:45:12;;;;;;;4.63;3.38;;;;;;;12.30;100.00;100579.44;4974557;28;20051;-78
2022/10/16 04:47:38;;;;;;;5.95;3.53;;;;;;;12.38;100.00;100572.53;4976227;28;20410;-78
2022/10/16 04:50:06;;;;;;;3.67;3.33;;;;;;;12.33;100.00;100580.09;4980291;28;20142;-80
2022/10/16 04:52:33;;;;;;;4.40;2.97;;;;;;;12.27;100.00;100582.44;4984574;28;20094;-79
2022/10/16 04:55:02;;;;;;;4.15;3.50;;;;;;;12.40;100.00;100609.91;4986995;28;20082;-79
2022/10/16 04:57:29;;;;;;;5.70;3.50;;;;;;;12.46;100.00;100609.25;4983088;28;20094;-79
2022/10/16 04:59:56;;;;;;;3.75;3.33;;;;;;;12.43;100.00;100609.59;4981170;28;20110;-79
2022/10/16 05:02:23;;;;;;;5.68;3.60;;;;;;;12.40;100.00;100599.44;4979415;28;20089;-79
2022/10/16 05:04:50;;;;;;;4.53;3.28;;;;;;;12.39;100.00;100605.66;4978279;28;20119;-78
2022/10/16 05:07:18;;;;;;;4.70;3.40;;;;;;;12.36;100.00;100612.06;4976651;28;20461;-80
2022/10/16 05:09:45;;;;;;;5.85;3.75;;;;;;;12.33;100.00;100611.56;4976862;28;20051;-79
2022/10/16 05:12:11;;;;;;;5.13;3.70;;;;;;;12.27;100.00;100616.53;4983135;28;20078;-79
2022/10/16 05:14:38;;;;;;;5.53;3.25;;;;;;;12.22;100.00;100623.25;4981583;28;20082;-80
2022/10/16 05:17:05;;;;;;;6.25;4.10;;;;;;;12.19;100.00;100620.97;4983652;28;20059;-80
2022/10/16 05:19:33;;;;;;;6.38;4.13;;;;;;;12.19;100.00;100629.66;4983571;28;20125;-81
2022/10/16 05:21:59;;;;;;;5.63;4.25;;;;;;;12.11;100.00;100616.56;4980186;28;20051;-79
2022/10/16 05:24:26;;;;;;;7.90;4.10;;;;;;;12.07;100.00;100620.50;4980491;28;20062;-79
2022/10/16 05:26:53;;;;;;;4.70;4.20;;;;;;;11.99;100.00;100627.53;4977994;28;20081;-79
2022/10/16 05:29:20;;;;;;;5.70;3.95;;;;;;;11.90;100.00;100626.72;4973442;28;20182;-78
2022/10/16 05:31:47;;;;;;;6.55;4.22;;;;;;;11.92;100.00;100632.63;4974384;28;20088;-79
2022/10/16 05:34:14;;;;;;;8.95;4.15;;;;;;;12.03;100.00;100637.53;4975290;28;20240;-79
2022/10/16 05:36:45;;;;;;;5.05;4.25;;;;;;;12.03;100.00;100634.91;4974326;28;20133;-78
2022/10/16 05:39:11;;;;;;;6.63;4.18;;;;;;;12.03;100.00;100649.84;4972369;28;20125;-78
2022/10/16 05:41:38;;;;;;;7.07;4.07;;;;;;;12.08;100.00;100653.59;4977045;28;20133;-78
2022/10/16 05:44:06;;;;;;;6.00;4.18;;;;;;;12.18;100.00;100654.25;4974272;28;20110;-79
2022/10/16 05:46:33;;;;;;;4.35;3.90;;;;;;;12.21;100.00;100648.69;4975017;28;20055;-78
2022/10/16 05:49:00;;;;;;;5.30;4.32;;;;;;;12.20;100.00;100643.59;4974905;28;20043;-78
2022/10/16 05:51:26;;;;;;;4.60;3.80;;;;;;;12.27;100.00;100640.16;4974235;28;20082;-78
2022/10/16 05:53:54;;;;;;;9.18;4.35;;;;;;;12.24;100.00;100645.72;4976118;28;20057;-78
2022/10/16 05:56:21;;;;;;;5.28;4.40;;;;;;;12.19;100.00;100665.56;4997296;23;20065;-78
2022/10/16 05:58:50;;;;;;;5.85;4.40;;;;;;;12.21;100.00;100664.41;4978882;28;20082;-77
2022/10/16 06:01:23;;;;;;;5.95;4.35;;;;;;;12.17;100.00;100659.66;4980153;28;20046;-76
2022/10/16 06:03:51;;;;;;;5.13;4.57;;;;;;;12.10;100.00;100656.88;4979195;28;20114;-77
2022/10/16 06:06:19;;;;;;;6.40;4.50;;;;;;;12.12;100.00;100669.84;4978856;28;20110;-76
2022/10/16 06:08:47;;;;;;;4.70;4.18;;;;;;;12.06;100.00;100676.56;4970533;28;20047;-77
2022/10/16 06:11:19;;;;;;;5.20;3.88;;;;;;;12.08;100.00;100689.50;4959482;28;20087;-77
2022/10/16 06:13:49;;;;;;;5.25;4.50;;;;;;;12.06;100.00;100680.97;4940028;29;20127;-76
2022/10/16 06:16:16;;;;;;;7.07;4.88;;;;;;;12.21;100.00;100698.53;4950253;28;20135;-74
2022/10/16 06:18:42;;;;;;;8.30;5.22;;;;;;;12.15;100.00;100683.44;4958509;29;20079;-77
2022/10/16 06:21:11;;;;;;;8.23;4.72;;;;;;;12.11;100.00;100684.75;4969878;28;20054;-78
2022/10/16 06:23:38;;;;;;;5.53;5.03;;;;;;;12.20;100.00;100678.53;4979404;28;20502;-79
2022/10/16 06:26:08;;;;;;;6.22;4.82;;;;;;;12.32;100.00;100701.78;4979341;28;20061;-79
2022/10/16 06:28:36;;;;;;;6.30;5.18;;;;;;;12.41;100.00;100695.53;4961268;28;20043;-79
2022/10/16 06:31:05;;;;;;;7.70;5.20;;;;;;;12.40;100.00;100709.63;4960319;28;20066;-77
2022/10/16 06:33:32;;;;;;;7.82;5.85;;;;;;;12.35;100.00;100685.69;4959054;29;20150;-79
2022/10/16 06:36:03;;;;;;;7.60;5.45;;;;;;;12.40;100.00;100699.16;4960652;29;20135;-79
2022/10/16 06:38:30;;;;;;;7.90;5.82;;;;;;;12.53;100.00;100718.66;4961227;28;20157;-77
2022/10/16 06:40:57;;;;;;;7.65;5.88;;;;;;;12.58;100.00;100728.66;4978733;28;20047;-76
2022/10/16 06:43:24;;;;;;;6.90;5.60;;;;;;;12.61;100.00;100712.56;4977525;28;20081;-76
2022/10/16 06:45:56;;;;;;;7.60;5.82;;;;;;;12.70;100.00;100732.56;4978262;28;20075;-79
2022/10/16 06:48:23;;;;;;;6.77;5.53;;;;;;;12.71;100.00;100722.91;4982856;28;20078;-76
2022/10/16 06:50:57;;;;;;;7.65;5.55;;;;;;;12.78;100.00;100729.91;4986089;28;20305;-78
2022/10/16 06:53:24;;;;;;;7.93;5.78;;;;;;;12.94;100.00;100750.88;4975147;28;20070;-78
2022/10/16 06:55:51;;;;;;;8.88;5.80;;;;;;;12.98;100.00;100745.28;4967017;29;20070;-79
2022/10/16 06:58:19;;;;;;;10.18;5.72;;;;;;;12.95;100.00;100749.06;4966301;28;20055;-79
2022/10/16 07:00:45;;;;;;;6.60;5.80;;;;;;;13.05;100.00;100756.78;4975365;28;20058;-79
2022/10/16 07:03:14;;;;;;;10.43;6.13;;;;;;;13.16;100.00;100764.34;4974102;29;20067;-78
2022/10/16 07:05:41;;;;;;;6.05;5.45;;;;;;;13.21;100.00;100765.47;4973831;28;20055;-78
2022/10/16 07:08:08;;;;;;;7.60;5.70;;;;;;;13.33;100.00;100770.31;4987813;28;20058;-78
2022/10/16 07:10:35;;;;;;;8.40;6.55;;;;;;;13.28;100.00;100768.22;4983849;28;20142;-76
2022/10/16 07:13:02;;;;;;;8.73;6.20;;;;;;;13.21;100.00;100749.69;4978041;28;20085;-77
2022/10/16 07:15:29;;;;;;;12.65;6.78;;;;;;;13.93;100.00;100784.47;4965897;28;20085;-75
2022/10/16 07:17:55;;;;;;;9.25;6.88;;;;;;;14.42;100.00;100783.34;4963650;29;20091;-76
2022/10/16 07:20:23;;;;;;;9.23;7.13;;;;;;;14.76;100.00;100780.22;4967606;29;20097;-76
2022/10/16 07:22:50;;;;;;;9.30;6.53;;;;;;;14.64;100.00;100803.56;4981044;28;20138;-77
2022/10/16 07:25:17;;;;;;;10.10;6.10;;;;;;;14.53;100.00;100806.63;4988886;28;20055;-76
2022/10/16 07:27:43;;;;;;;6.20;4.95;;;;;;;14.17;100.00;100796.66;4980702;28;20047;-77
2022/10/16 07:30:11;;;;;;;5.95;5.00;;;;;;;14.03;100.00;100805.31;4967174;28;20106;-76
2022/10/16 07:32:37;;;;;;;7.80;5.32;;;;;;;13.88;100.00;100817.56;4970410;28;20059;-75
2022/10/16 07:35:04;;;;;;;8.10;5.25;;;;;;;13.89;100.00;100808.69;4979484;28;20086;-77
2022/10/16 07:37:33;;;;;;;7.63;4.85;;;;;;;14.19;100.00;100810.44;4981379;28;20461;-78
2022/10/16 07:40:03;;;;;;;6.03;5.15;;;;;;;14.24;100.00;100808.09;4982401;28;20062;-78
2022/10/16 07:42:29;;;;;;;5.93;5.03;;;;;;;14.03;100.00;100791.34;4981572;28;20050;-79
2022/10/16 07:44:58;;;;;;;7.05;4.50;;;;;;;13.98;100.00;100807.63;4982697;28;20080;-79
2022/10/16 07:47:28;;;;;;;5.50;4.30;;;;;;;13.87;100.00;100808.03;4964464;28;20053;-79
2022/10/16 07:49:55;;;;;;;6.38;4.50;;;;;;;13.94;100.00;100827.38;4962234;29;20047;-79
2022/10/16 07:52:24;;;;;;;5.07;4.47;;;;;;;14.07;100.00;100824.19;4963464;29;20063;-78
2022/10/16 07:54:55;;;;;;;5.78;3.95;;;;;;;14.07;100.00;100830.28;4963539;28;20138;-81
2022/10/16 07:57:22;;;;;;;9.57;4.07;;;;;;;14.25;100.00;100836.06;4958884;29;20421;-78
2022/10/16 07:59:49;;;;;;;4.03;3.47;;;;;;;15.10;100.00;100840.34;4960050;28;20134;-77
2022/10/16 08:02:16;;;;;;;4.10;3.70;;;;;;;15.87;98.87;100846.06;4976550;28;20166;-79
2022/10/16 08:04:55;;;;;;;6.88;3.30;;;;;;;16.76;94.49;100855.28;4980921;28;20074;-80
2022/10/16 08:07:21;;;;;;;3.60;3.25;;;;;;;17.47;90.17;100856.00;4960150;29;20099;-80
2022/10/16 08:09:58;;;;;;;5.35;3.15;;;;;;;17.95;87.15;100856.03;4960350;28;20138;-80
2022/10/16 08:12:25;;;;;;;3.72;2.97;;;;;;;17.98;85.38;100852.13;4978525;28;20047;-76
2022/10/16 08:14:52;;;;;;;6.43;3.10;;;;;;;18.30;84.22;100851.44;4980285;28;20043;-78
2022/10/16 08:17:18;;;;;;;4.28;2.70;;;;;;;18.48;84.12;100866.72;4962160;28;20051;-78
2022/10/16 08:19:46;;;;;;;4.35;3.10;;;;;;;17.73;84.53;100857.97;4959009;29;20118;-79
2022/10/16 08:22:15;;;;;;;4.05;2.83;;;;;;;17.08;87.48;100853.09;4960221;28;20093;-77
2022/10/16 08:24:42;;;;;;;3.30;2.97;;;;;;;16.62;90.17;100856.16;4971716;28;20054;-78
2022/10/16 08:27:10;;;;;;;5.35;3.30;;;;;;;16.48;91.71;100862.34;4962774;28;20082;-78
2022/10/16 08:29:38;;;;;;;5.40;3.65;;;;;;;16.84;91.38;100862.28;4960282;29;20118;-78
2022/10/16 08:32:08;;;;;;;4.93;2.60;;;;;;;17.43;88.22;100857.41;4963612;28;20058;-77
2022/10/16 08:34:37;;;;;;;4.22;2.67;;;;;;;17.92;86.75;100876.78;4962006;28;20047;-78
2022/10/16 08:37:04;;;;;;;3.45;2.60;;;;;;;18.04;85.85;100872.53;4963511;28;20081;-80
2022/10/16 08:39:30;;;;;;;2.58;2.15;;;;;;;18.17;84.41;100876.03;4962247;28;20083;-80
2022/10/16 08:42:16;;;;;;;3.63;2.47;;;;;;;18.00;84.77;100880.06;4976092;28;20051;-79
2022/10/16 08:45:07;;;;;;;6.25;1.95;;;;;;;18.07;83.84;100883.53;4982710;28;20093;-78
2022/10/16 08:47:45;;;;;;;2.25;2.08;;;;;;;17.71;84.11;100883.81;4975820;28;20078;-78
2022/10/16 08:50:15;;;;;;;5.00;3.28;;;;;;;17.58;86.39;100884.53;4980973;28;20210;-77
2022/10/16 08:52:44;;;;;;;5.15;3.05;;;;;;;17.49;85.81;100890.97;4974701;28;20078;-77
2022/10/16 08:55:24;;;;;;;5.00;2.78;;;;;;;17.21;86.80;100887.56;4974606;28;20137;-77
2022/10/16 08:57:52;;;;;;;4.05;2.28;;;;;;;17.16;87.31;100901.34;4955669;28;20130;-76
2022/10/16 09:00:20;;;;;;;2.70;2.17;;;;;;;17.16;87.93;100895.25;4956232;28;20109;-76
2022/10/16 09:02:53;;;;;;;6.55;2.47;;;;;;;17.02;86.57;100893.50;4955161;29;20143;-78
2022/10/16 09:05:32;;;;;;;2.53;2.13;;;;;;;16.94;86.99;100888.38;4957107;28;20054;-76
2022/10/16 09:08:09;;;;;;;4.35;2.20;;;;;;;17.11;86.37;100889.72;4973436;28;20133;-75
2022/10/16 09:10:45;;;;;;;5.70;1.95;;;;;;;17.13;85.92;100882.41;4973519;28;20229;-77
2022/10/16 09:13:22;;;;;;;2.97;2.05;;;;;;;17.15;86.52;100893.63;4959806;28;20506;-77
2022/10/16 09:15:56;;;;;;;2.35;1.90;;;;;;;17.20;85.45;100894.69;4955968;28;20130;-77
2022/10/16 09:18:33;;;;;;;5.82;2.35;;;;;;;17.04;85.47;100888.84;4949816;29;20521;-77
2022/10/16 09:21:10;;;;;;;2.53;1.85;;;;;;;16.93;85.39;100877.00;4953149;29;20459;-77
2022/10/16 09:23:38;;;;;;;2.70;1.95;;;;;;;17.01;85.55;100887.44;4952633;29;20090;-76
2022/10/16 09:26:06;;;;;;;3.33;2.20;;;;;;;17.04;85.57;100883.56;4955895;28;20078;-76
2022/10/16 09:28:34;;;;;;;2.95;2.58;;;;;;;17.12;86.41;100894.00;4952700;28;20093;-77
2022/10/16 09:31:01;;;;;;;2.50;1.85;;;;;;;17.03;86.37;100888.03;4950776;29;20075;-78
2022/10/16 09:33:33;;;;;;;3.08;2.35;;;;;;;17.15;85.69;100893.63;4953075;29;20055;-78
2022/10/16 09:36:00;;;;;;;6.40;2.53;;;;;;;17.24;86.40;100903.03;4951349;29;20066;-78
2022/10/16 09:38:29;;;;;;;4.63;2.65;;;;;;;17.28;85.11;100895.53;4955891;29;20058;-78
2022/10/16 09:40:57;;;;;;;1.80;1.70;;;;;;;17.33;84.40;100893.94;4955595;29;20045;-77
2022/10/16 09:43:30;;;;;;;4.07;2.00;;;;;;;17.43;84.34;100891.78;4955500;29;20051;-76
2022/10/16 09:46:01;;;;;;;4.32;1.90;;;;;;;17.53;83.63;100900.16;4955157;28;20047;-79
2022/10/16 09:48:40;;;;;;;3.85;2.33;;;;;;;17.66;83.14;100893.34;4953679;28;20142;-78
2022/10/16 09:51:18;;;;;;;4.78;1.85;;;;;;;17.54;81.97;100893.88;4952336;28;20110;-77
2022/10/16 09:53:47;;;;;;;3.60;2.17;;;;;;;17.51;81.72;100896.06;4953062;29;20157;-78
2022/10/16 09:56:23;;;;;;;5.95;2.30;;;;;;;17.59;81.56;100906.50;4956291;29;20066;-81
2022/10/16 09:58:52;;;;;;;3.10;1.90;;;;;;;17.73;81.26;100910.91;4961943;28;20050;-80
2022/10/16 10:01:21;;;;;;;4.00;1.60;;;;;;;17.80;81.66;100913.59;4970703;28;20054;-79
2022/10/16 10:03:49;;;;;;;3.80;1.85;;;;;;;17.88;80.90;100898.34;4956822;28;20088;-79
2022/10/16 10:06:20;;;;;;;3.63;1.85;;;;;;;18.05;80.66;100895.34;4954778;28;20498;-76
2022/10/16 10:09:03;;;;;;;2.25;1.73;;;;;;;17.96;79.91;100902.63;4954596;29;20089;-78
2022/10/16 10:11:54;;;;;;;3.55;2.03;;;;;;;17.86;79.23;100892.44;4952192;29;20061;-79
2022/10/16 10:14:28;;;;;;;7.63;1.95;;;;;;;18.06;78.56;100899.63;4941577;28;20138;-79
2022/10/16 10:17:12;;;;;;;3.13;1.63;;;;;;;18.20;76.39;100891.53;4956942;29;20138;-77
2022/10/16 10:19:40;;;;;;;2.35;1.67;;;;;;;18.31;76.95;100891.97;4961458;28;20141;-76
2022/10/16 10:22:17;;;;;;;1.90;1.67;;;;;;;18.36;77.04;100895.66;4976945;28;20089;-77
2022/10/16 10:24:45;;;;;;;3.33;1.83;;;;;;;18.42;76.40;100896.69;4979748;28;20134;-78
2022/10/16 10:27:17;;;;;;;5.45;1.52;;;;;;;18.42;74.91;100888.75;4974162;28;20141;-78
2022/10/16 10:29:59;;;;;;;4.57;1.63;;;;;;;18.36;74.62;100894.84;4969117;28;20047;-78
2022/10/16 10:32:38;;;;;;;4.80;1.92;;;;;;;18.36;75.81;100900.13;4970480;28;20055;-77
2022/10/16 10:35:16;;;;;;;2.85;1.60;;;;;;;18.55;76.19;100899.34;4968307;28;20561;-78
2022/10/16 10:37:59;;;;;;;1.65;1.23;;;;;;;18.64;75.84;100924.69;4967255;28;20137;-79
2022/10/16 10:40:40;;;;;;;2.08;1.50;;;;;;;18.55;75.62;100910.75;4979899;28;20046;-78
2022/10/16 10:43:16;;;;;;;4.45;1.70;;;;;;;18.76;75.67;100916.94;4979830;28;20108;-78
2022/10/16 10:45:45;;;;;;;4.28;1.85;;;;;;;18.84;74.65;100914.91;4972428;28;20047;-79
2022/10/16 10:48:23;;;;;;;5.60;1.75;;;;;;;18.71;74.28;100908.78;4968482;28;20061;-80
2022/10/16 10:50:56;;;;;;;5.10;1.50;;;;;;;18.58;75.41;100905.06;4966480;28;20117;-81
2022/10/16 10:53:27;;;;;;;;;;;;;;;18.56;75.41;100906.28;4957414;29;20087;-80
2022/10/16 10:56:00;;;;;;;5.95;2.10;;;;;;;18.67;76.35;100908.38;4941315;29;19923;-83
2022/10/16 10:59:02;;;;;;;4.38;1.73;;;;;;;18.76;75.51;100901.84;4956013;28;20147;-80
2022/10/16 11:01:40;;;;;;;4.45;1.73;;;;;;;18.98;74.66;100904.28;4967092;28;20475;-81
2022/10/16 11:04:26;;;;;;;4.38;1.63;;;;;;;19.23;73.89;100907.97;4966783;28;20477;-80
2022/10/16 11:06:59;;;;;;;2.58;1.50;;;;;;;18.79;73.22;100905.94;4959687;28;20178;-80
2022/10/16 11:09:29;;;;;;;4.95;1.95;;;;;;;18.64;73.93;100906.13;4961045;28;20126;-76
2022/10/16 11:11:59;;;;;;;6.47;2.65;;;;;;;18.53;74.76;100914.63;4959357;28;20130;-77
2022/10/16 11:14:31;;;;;;;3.67;1.90;;;;;;;18.56;74.97;100911.56;4967930;28;20051;-76
2022/10/16 11:17:03;;;;;;;6.07;1.77;;;;;;;18.84;75.10;100920.22;4968034;28;20061;-79
2022/10/16 11:19:38;;;;;;;3.97;1.48;;;;;;;18.79;73.78;100916.53;4964573;28;20142;-78
2022/10/16 11:22:10;;;;;;;2.95;1.52;;;;;;;18.71;73.88;100919.38;4964664;28;20077;-78
2022/10/16 11:24:46;;;;;;;8.15;1.90;;;;;;;18.71;73.94;100916.75;4963857;28;20090;-78
2022/10/16 11:27:17;;;;;;;5.28;2.00;;;;;;;18.88;73.60;100926.75;4958141;28;20116;-78
2022/10/16 11:29:54;;;;;;;2.38;1.52;;;;;;;19.17;73.88;100924.69;4957021;28;20058;-79
2022/10/16 11:32:27;;;;;;;3.45;2.00;;;;;;;19.29;72.54;100922.25;4958851;28;20075;-80